sensor_id;sensor_type;location;lat;lon;timestamp;temperature;humidity
75964;DHT22;65820;44.726;37.764;2023-02-11T00:00:56;16.13;47.94
75964;DHT22;65820;44.726;37.764;2023-02-11T00:01:57;16.14;47.84
75964;DHT22;65820;44.726;37.764;2023-02-11T00:04:55;16.13;47.63
75964;DHT22;65820;44.726;37.764;2023-02-11T00:12:15;16.12;47.43
75964;DHT22;65820;44.726;37.764;2023-02-11T00:13:19;16.12;47.38
75964;DHT22;65820;44.726;37.764;2023-02-11T00:14:21;16.11;47.37
75964;DHT22;65820;44.726;37.764;2023-02-11T00:18:29;16.11;47.25
75964;DHT22;65820;44.726;37.764;2023-02-11T00:21:23;16.10;47.19
75964;DHT22;65820;44.726;37.764;2023-02-11T00:22:26;16.08;47.17
75964;DHT22;65820;44.726;37.764;2023-02-11T00:23:28;16.07;47.21
75964;DHT22;65820;44.726;37.764;2023-02-11T00:24:29;16.08;47.15
75964;DHT22;65820;44.726;37.764;2023-02-11T00:25:31;16.10;47.12
75964;DHT22;65820;44.726;37.764;2023-02-11T00:26:33;16.07;47.10
75964;DHT22;65820;44.726;37.764;2023-02-11T00:44:03;16.04;46.89
75964;DHT22;65820;44.726;37.764;2023-02-11T00:58:23;16.01;46.83
75964;DHT22;65820;44.726;37.764;2023-02-11T01:05:33;15.98;46.82
75964;DHT22;65820;44.726;37.764;2023-02-11T01:06:34;15.98;46.80
75964;DHT22;65820;44.726;37.764;2023-02-11T01:07:36;15.98;46.80
75964;DHT22;65820;44.726;37.764;2023-02-11T01:13:33;15.98;46.75
75964;DHT22;65820;44.726;37.764;2023-02-11T01:14:35;15.97;46.76
75964;DHT22;65820;44.726;37.764;2023-02-11T01:15:36;15.99;46.75
75964;DHT22;65820;44.726;37.764;2023-02-11T01:16:38;15.99;46.74
75964;DHT22;65820;44.726;37.764;2023-02-11T01:17:39;16.00;46.70
75964;DHT22;65820;44.726;37.764;2023-02-11T01:18:41;15.98;46.75
75964;DHT22;65820;44.726;37.764;2023-02-11T01:19:44;16.00;46.70
75964;DHT22;65820;44.726;37.764;2023-02-11T01:20:45;16.00;46.71
75964;DHT22;65820;44.726;37.764;2023-02-11T01:21:46;16.02;46.69
75964;DHT22;65820;44.726;37.764;2023-02-11T01:22:48;16.00;46.67
75964;DHT22;65820;44.726;37.764;2023-02-11T01:23:50;16.01;46.64
75964;DHT22;65820;44.726;37.764;2023-02-11T01:32:54;16.03;46.60
75964;DHT22;65820;44.726;37.764;2023-02-11T01:33:55;16.02;46.56
75964;DHT22;65820;44.726;37.764;2023-02-11T01:34:57;16.02;46.58
75964;DHT22;65820;44.726;37.764;2023-02-11T01:36:02;16.03;46.59
75964;DHT22;65820;44.726;37.764;2023-02-11T01:37:04;16.03;46.54
75964;DHT22;65820;44.726;37.764;2023-02-11T01:38:06;16.03;46.52
75964;DHT22;65820;44.726;37.764;2023-02-11T01:39:08;16.04;46.50
75964;DHT22;65820;44.726;37.764;2023-02-11T01:40:13;16.04;46.51
75964;DHT22;65820;44.726;37.764;2023-02-11T01:41:14;16.03;46.51
75964;DHT22;65820;44.726;37.764;2023-02-11T01:42:18;16.04;46.47
75964;DHT22;65820;44.726;37.764;2023-02-11T01:43:20;16.05;46.47
75964;DHT22;65820;44.726;37.764;2023-02-11T01:47:27;16.05;46.44
75964;DHT22;65820;44.726;37.764;2023-02-11T01:48:43;16.05;46.41
75964;DHT22;65820;44.726;37.764;2023-02-11T01:49:49;16.06;46.39
75964;DHT22;65820;44.726;37.764;2023-02-11T01:50:55;16.05;46.42
75964;DHT22;65820;44.726;37.764;2023-02-11T01:51:59;16.06;46.39
75964;DHT22;65820;44.726;37.764;2023-02-11T01:54:23;16.06;46.38
75964;DHT22;65820;44.726;37.764;2023-02-11T01:55:44;16.06;46.37
75964;DHT22;65820;44.726;37.764;2023-02-11T01:57:04;16.06;46.33
75964;DHT22;65820;44.726;37.764;2023-02-11T01:58:26;16.07;46.32
75964;DHT22;65820;44.726;37.764;2023-02-11T02:04:33;16.08;46.33
75964;DHT22;65820;44.726;37.764;2023-02-11T02:07:00;16.06;46.30
75964;DHT22;65820;44.726;37.764;2023-02-11T02:12:56;16.07;46.29
75964;DHT22;65820;44.726;37.764;2023-02-11T02:23:18;16.05;46.34
75964;DHT22;65820;44.726;37.764;2023-02-11T02:32:36;16.04;46.37
75964;DHT22;65820;44.726;37.764;2023-02-11T02:39:52;16.03;46.38
75964;DHT22;65820;44.726;37.764;2023-02-11T02:41:09;16.03;46.38
75964;DHT22;65820;44.726;37.764;2023-02-11T02:44:24;16.05;46.33
75964;DHT22;65820;44.726;37.764;2023-02-11T02:46:31;16.05;46.32
75964;DHT22;65820;44.726;37.764;2023-02-11T02:47:32;16.04;46.34
75964;DHT22;65820;44.726;37.764;2023-02-11T02:48:34;16.05;46.35
75964;DHT22;65820;44.726;37.764;2023-02-11T02:49:38;16.05;46.38
75964;DHT22;65820;44.726;37.764;2023-02-11T02:54:36;16.04;46.34
75964;DHT22;65820;44.726;37.764;2023-02-11T03:02:48;16.04;46.95
75964;DHT22;65820;44.726;37.764;2023-02-11T03:04:11;16.05;46.95
75964;DHT22;65820;44.726;37.764;2023-02-11T03:08:30;16.06;46.99
75964;DHT22;65820;44.726;37.764;2023-02-11T03:09:41;16.06;47.01
75964;DHT22;65820;44.726;37.764;2023-02-11T03:11:40;16.07;47.03
75964;DHT22;65820;44.726;37.764;2023-02-11T03:12:42;16.08;47.10
75964;DHT22;65820;44.726;37.764;2023-02-11T03:13:47;16.07;47.09
75964;DHT22;65820;44.726;37.764;2023-02-11T03:14:51;16.07;47.18
75964;DHT22;65820;44.726;37.764;2023-02-11T03:15:54;16.10;47.20
75964;DHT22;65820;44.726;37.764;2023-02-11T03:17:00;16.10;47.20
75964;DHT22;65820;44.726;37.764;2023-02-11T03:18:02;16.10;47.24
75964;DHT22;65820;44.726;37.764;2023-02-11T03:19:18;16.10;47.18
75964;DHT22;65820;44.726;37.764;2023-02-11T03:20:21;16.10;47.18
75964;DHT22;65820;44.726;37.764;2023-02-11T03:21:23;16.11;47.18
75964;DHT22;65820;44.726;37.764;2023-02-11T03:22:32;16.11;47.22
75964;DHT22;65820;44.726;37.764;2023-02-11T03:23:42;16.12;47.28
75964;DHT22;65820;44.726;37.764;2023-02-11T03:26:33;16.13;47.31
75964;DHT22;65820;44.726;37.764;2023-02-11T03:28:07;16.13;47.32
75964;DHT22;65820;44.726;37.764;2023-02-11T03:29:34;16.13;47.28
75964;DHT22;65820;44.726;37.764;2023-02-11T03:30:48;16.14;47.27
75964;DHT22;65820;44.726;37.764;2023-02-11T03:36:06;16.18;52.44
75964;DHT22;65820;44.726;37.764;2023-02-11T03:38:37;16.20;53.72
75964;DHT22;65820;44.726;37.764;2023-02-11T03:39:46;16.22;54.23
75964;DHT22;65820;44.726;37.764;2023-02-11T03:40:49;16.24;54.37
75964;DHT22;65820;44.726;37.764;2023-02-11T03:41:54;16.25;54.29
75964;DHT22;65820;44.726;37.764;2023-02-11T03:42:58;16.26;54.20
75964;DHT22;65820;44.726;37.764;2023-02-11T03:45:37;16.28;54.23
75964;DHT22;65820;44.726;37.764;2023-02-11T03:46:42;16.30;54.17
75964;DHT22;65820;44.726;37.764;2023-02-11T03:49:17;16.32;53.78
75964;DHT22;65820;44.726;37.764;2023-02-11T03:50:21;16.33;53.97
75964;DHT22;65820;44.726;37.764;2023-02-11T03:51:24;16.34;53.85
75964;DHT22;65820;44.726;37.764;2023-02-11T03:52:27;16.36;53.72
75964;DHT22;65820;44.726;37.764;2023-02-11T03:53:29;16.36;53.75
75964;DHT22;65820;44.726;37.764;2023-02-11T03:54:31;16.39;53.63
75964;DHT22;65820;44.726;37.764;2023-02-11T03:55:36;16.40;53.33
75964;DHT22;65820;44.726;37.764;2023-02-11T03:56:51;16.40;53.33
75964;DHT22;65820;44.726;37.764;2023-02-11T03:57:53;16.42;53.29
75964;DHT22;65820;44.726;37.764;2023-02-11T03:58:54;16.44;53.18
75964;DHT22;65820;44.726;37.764;2023-02-11T03:59:57;16.43;53.07
75964;DHT22;65820;44.726;37.764;2023-02-11T04:00:59;16.45;53.00
75964;DHT22;65820;44.726;37.764;2023-02-11T04:02:02;16.45;52.90
75964;DHT22;65820;44.726;37.764;2023-02-11T04:03:03;16.45;52.86
75964;DHT22;65820;44.726;37.764;2023-02-11T04:04:05;16.46;52.75
75964;DHT22;65820;44.726;37.764;2023-02-11T04:05:08;16.46;52.65
75964;DHT22;65820;44.726;37.764;2023-02-11T04:06:09;16.47;52.59
75964;DHT22;65820;44.726;37.764;2023-02-11T04:09:18;16.49;52.36
75964;DHT22;65820;44.726;37.764;2023-02-11T04:10:19;16.48;52.27
75964;DHT22;65820;44.726;37.764;2023-02-11T04:11:21;16.50;52.15
75964;DHT22;65820;44.726;37.764;2023-02-11T04:12:22;16.50;52.19
75964;DHT22;65820;44.726;37.764;2023-02-11T04:13:24;16.50;52.13
75964;DHT22;65820;44.726;37.764;2023-02-11T04:14:25;16.51;52.10
75964;DHT22;65820;44.726;37.764;2023-02-11T04:15:27;16.51;52.01
75964;DHT22;65820;44.726;37.764;2023-02-11T04:16:28;16.51;51.95
75964;DHT22;65820;44.726;37.764;2023-02-11T04:17:30;16.51;51.91
75964;DHT22;65820;44.726;37.764;2023-02-11T04:18:42;16.51;51.79
75964;DHT22;65820;44.726;37.764;2023-02-11T04:19:43;16.52;51.77
75964;DHT22;65820;44.726;37.764;2023-02-11T04:21:42;16.54;51.59
75964;DHT22;65820;44.726;37.764;2023-02-11T04:22:43;16.54;51.57
75964;DHT22;65820;44.726;37.764;2023-02-11T04:23:44;16.55;51.51
75964;DHT22;65820;44.726;37.764;2023-02-11T04:24:46;16.56;51.37
75964;DHT22;65820;44.726;37.764;2023-02-11T04:25:48;16.55;51.30
75964;DHT22;65820;44.726;37.764;2023-02-11T04:27:38;16.56;51.31
75964;DHT22;65820;44.726;37.764;2023-02-11T04:28:46;16.56;51.21
75964;DHT22;65820;44.726;37.764;2023-02-11T04:29:48;16.56;51.18
75964;DHT22;65820;44.726;37.764;2023-02-11T04:30:50;16.56;50.93
75964;DHT22;65820;44.726;37.764;2023-02-11T04:31:51;16.56;50.91
75964;DHT22;65820;44.726;37.764;2023-02-11T04:32:53;16.56;50.59
75964;DHT22;65820;44.726;37.764;2023-02-11T04:33:55;16.55;50.61
75964;DHT22;65820;44.726;37.764;2023-02-11T04:34:59;16.55;50.46
75964;DHT22;65820;44.726;37.764;2023-02-11T04:36:00;16.55;50.14
75964;DHT22;65820;44.726;37.764;2023-02-11T04:37:02;16.55;49.71
75964;DHT22;65820;44.726;37.764;2023-02-11T04:38:04;16.55;49.56
75964;DHT22;65820;44.726;37.764;2023-02-11T04:39:05;16.54;49.20
75964;DHT22;65820;44.726;37.764;2023-02-11T04:40:07;16.54;49.00
75964;DHT22;65820;44.726;37.764;2023-02-11T04:41:09;16.55;48.83
75964;DHT22;65820;44.726;37.764;2023-02-11T04:42:10;16.54;48.58
75964;DHT22;65820;44.726;37.764;2023-02-11T04:43:12;16.55;48.42
75964;DHT22;65820;44.726;37.764;2023-02-11T04:44:13;16.51;48.44
75964;DHT22;65820;44.726;37.764;2023-02-11T04:45:14;16.52;48.37
75964;DHT22;65820;44.726;37.764;2023-02-11T04:46:16;16.52;48.26
75964;DHT22;65820;44.726;37.764;2023-02-11T04:47:18;16.51;48.21
75964;DHT22;65820;44.726;37.764;2023-02-11T04:48:19;16.51;48.05
75964;DHT22;65820;44.726;37.764;2023-02-11T04:49:20;16.51;47.96
75964;DHT22;65820;44.726;37.764;2023-02-11T04:50:22;16.51;47.91
75964;DHT22;65820;44.726;37.764;2023-02-11T04:51:24;16.51;47.87
75964;DHT22;65820;44.726;37.764;2023-02-11T04:52:25;16.51;47.84
75964;DHT22;65820;44.726;37.764;2023-02-11T04:53:26;16.50;47.82
75964;DHT22;65820;44.726;37.764;2023-02-11T04:54:28;16.49;47.84
75964;DHT22;65820;44.726;37.764;2023-02-11T04:55:29;16.50;48.07
75964;DHT22;65820;44.726;37.764;2023-02-11T04:56:30;16.49;48.37
75964;DHT22;65820;44.726;37.764;2023-02-11T04:57:32;16.48;48.41
75964;DHT22;65820;44.726;37.764;2023-02-11T04:58:33;16.48;48.55
75964;DHT22;65820;44.726;37.764;2023-02-11T04:59:35;16.47;48.69
75964;DHT22;65820;44.726;37.764;2023-02-11T05:00:36;16.47;48.87
75964;DHT22;65820;44.726;37.764;2023-02-11T05:01:38;16.47;48.92
75964;DHT22;65820;44.726;37.764;2023-02-11T05:02:40;16.47;48.99
75964;DHT22;65820;44.726;37.764;2023-02-11T05:03:41;16.46;49.05
75964;DHT22;65820;44.726;37.764;2023-02-11T05:04:43;16.46;49.25
75964;DHT22;65820;44.726;37.764;2023-02-11T05:05:44;16.44;48.96
75964;DHT22;65820;44.726;37.764;2023-02-11T05:06:45;16.45;49.37
75964;DHT22;65820;44.726;37.764;2023-02-11T05:07:47;16.45;49.47
75964;DHT22;65820;44.726;37.764;2023-02-11T05:08:48;16.45;49.46
75964;DHT22;65820;44.726;37.764;2023-02-11T05:09:50;16.44;49.42
75964;DHT22;65820;44.726;37.764;2023-02-11T05:10:51;16.45;49.65
75964;DHT22;65820;44.726;37.764;2023-02-11T05:11:53;16.45;49.60
75964;DHT22;65820;44.726;37.764;2023-02-11T05:12:54;16.44;49.72
75964;DHT22;65820;44.726;37.764;2023-02-11T05:13:55;16.44;49.72
75964;DHT22;65820;44.726;37.764;2023-02-11T05:14:57;16.43;49.67
75964;DHT22;65820;44.726;37.764;2023-02-11T05:15:58;16.43;49.78
75964;DHT22;65820;44.726;37.764;2023-02-11T05:17:00;16.43;49.91
75964;DHT22;65820;44.726;37.764;2023-02-11T05:18:01;16.43;50.02
75964;DHT22;65820;44.726;37.764;2023-02-11T05:19:03;16.42;49.91
75964;DHT22;65820;44.726;37.764;2023-02-11T05:20:05;16.43;50.00
75964;DHT22;65820;44.726;37.764;2023-02-11T05:21:14;16.41;50.05
75964;DHT22;65820;44.726;37.764;2023-02-11T05:22:16;16.41;50.09
75964;DHT22;65820;44.726;37.764;2023-02-11T05:23:17;16.42;50.24
75964;DHT22;65820;44.726;37.764;2023-02-11T05:24:19;16.42;50.14
75964;DHT22;65820;44.726;37.764;2023-02-11T05:25:20;16.42;50.11
75964;DHT22;65820;44.726;37.764;2023-02-11T05:26:22;16.41;49.97
75964;DHT22;65820;44.726;37.764;2023-02-11T05:27:23;16.41;49.90
75964;DHT22;65820;44.726;37.764;2023-02-11T05:28:24;16.41;49.86
75964;DHT22;65820;44.726;37.764;2023-02-11T05:29:26;16.41;49.86
75964;DHT22;65820;44.726;37.764;2023-02-11T05:30:28;16.41;49.86
75964;DHT22;65820;44.726;37.764;2023-02-11T05:31:29;16.40;49.85
75964;DHT22;65820;44.726;37.764;2023-02-11T05:32:31;16.40;50.01
75964;DHT22;65820;44.726;37.764;2023-02-11T05:33:32;16.40;50.00
75964;DHT22;65820;44.726;37.764;2023-02-11T05:34:35;16.39;49.91
75964;DHT22;65820;44.726;37.764;2023-02-11T05:35:36;16.40;49.87
75964;DHT22;65820;44.726;37.764;2023-02-11T05:36:38;16.40;49.89
75964;DHT22;65820;44.726;37.764;2023-02-11T05:37:39;16.37;49.84
75964;DHT22;65820;44.726;37.764;2023-02-11T05:38:40;16.39;49.79
75964;DHT22;65820;44.726;37.764;2023-02-11T05:39:43;16.37;49.83
75964;DHT22;65820;44.726;37.764;2023-02-11T05:40:44;16.37;49.76
75964;DHT22;65820;44.726;37.764;2023-02-11T05:41:45;16.36;49.75
75964;DHT22;65820;44.726;37.764;2023-02-11T05:42:47;16.36;49.75
75964;DHT22;65820;44.726;37.764;2023-02-11T05:43:48;16.36;49.71
75964;DHT22;65820;44.726;37.764;2023-02-11T05:44:51;16.36;49.79
75964;DHT22;65820;44.726;37.764;2023-02-11T05:45:52;16.36;49.67
75964;DHT22;65820;44.726;37.764;2023-02-11T05:46:53;16.34;49.64
75964;DHT22;65820;44.726;37.764;2023-02-11T05:47:55;16.35;49.65
75964;DHT22;65820;44.726;37.764;2023-02-11T05:48:57;16.35;49.66
75964;DHT22;65820;44.726;37.764;2023-02-11T05:51:23;16.35;49.67
75964;DHT22;65820;44.726;37.764;2023-02-11T05:52:25;16.35;49.67
75964;DHT22;65820;44.726;37.764;2023-02-11T05:53:26;16.34;49.66
75964;DHT22;65820;44.726;37.764;2023-02-11T05:54:27;16.34;49.66
75964;DHT22;65820;44.726;37.764;2023-02-11T05:55:29;16.34;49.57
75964;DHT22;65820;44.726;37.764;2023-02-11T05:56:30;16.34;49.61
75964;DHT22;65820;44.726;37.764;2023-02-11T05:59:26;16.32;49.72
75964;DHT22;65820;44.726;37.764;2023-02-11T06:02:42;16.31;49.56
75964;DHT22;65820;44.726;37.764;2023-02-11T06:05:14;16.31;49.34
75964;DHT22;65820;44.726;37.764;2023-02-11T06:06:16;16.31;49.30
75964;DHT22;65820;44.726;37.764;2023-02-11T06:07:17;16.32;49.27
75964;DHT22;65820;44.726;37.764;2023-02-11T06:08:19;16.30;49.25
75964;DHT22;65820;44.726;37.764;2023-02-11T06:09:21;16.29;49.25
75964;DHT22;65820;44.726;37.764;2023-02-11T06:10:22;16.29;49.25
75964;DHT22;65820;44.726;37.764;2023-02-11T06:11:24;16.30;49.24
75964;DHT22;65820;44.726;37.764;2023-02-11T06:12:25;16.31;49.31
75964;DHT22;65820;44.726;37.764;2023-02-11T06:13:27;16.29;49.24
75964;DHT22;65820;44.726;37.764;2023-02-11T06:14:28;16.29;49.23
75964;DHT22;65820;44.726;37.764;2023-02-11T06:15:29;16.30;49.28
75964;DHT22;65820;44.726;37.764;2023-02-11T06:16:31;16.30;49.20
75964;DHT22;65820;44.726;37.764;2023-02-11T06:17:32;16.29;49.21
75964;DHT22;65820;44.726;37.764;2023-02-11T06:18:34;16.30;49.20
75964;DHT22;65820;44.726;37.764;2023-02-11T06:19:35;16.30;49.27
75964;DHT22;65820;44.726;37.764;2023-02-11T06:20:37;16.31;49.24
75964;DHT22;65820;44.726;37.764;2023-02-11T06:21:40;16.29;49.24
75964;DHT22;65820;44.726;37.764;2023-02-11T06:22:42;16.30;49.19
75964;DHT22;65820;44.726;37.764;2023-02-11T06:23:43;16.31;49.17
75964;DHT22;65820;44.726;37.764;2023-02-11T06:24:45;16.30;49.19
75964;DHT22;65820;44.726;37.764;2023-02-11T06:25:46;16.31;49.16
75964;DHT22;65820;44.726;37.764;2023-02-11T06:26:47;16.30;49.17
75964;DHT22;65820;44.726;37.764;2023-02-11T06:27:53;16.30;49.15
75964;DHT22;65820;44.726;37.764;2023-02-11T06:28:55;16.31;49.15
75964;DHT22;65820;44.726;37.764;2023-02-11T06:29:56;16.30;49.18
75964;DHT22;65820;44.726;37.764;2023-02-11T06:31:03;16.30;49.14
75964;DHT22;65820;44.726;37.764;2023-02-11T06:32:06;16.30;49.15
75964;DHT22;65820;44.726;37.764;2023-02-11T06:33:07;16.31;49.18
75964;DHT22;65820;44.726;37.764;2023-02-11T06:34:15;16.31;49.18
75964;DHT22;65820;44.726;37.764;2023-02-11T06:35:16;16.31;49.15
75964;DHT22;65820;44.726;37.764;2023-02-11T06:36:19;16.32;49.10
75964;DHT22;65820;44.726;37.764;2023-02-11T06:37:21;16.31;49.16
75964;DHT22;65820;44.726;37.764;2023-02-11T06:38:22;16.32;49.12
75964;DHT22;65820;44.726;37.764;2023-02-11T06:39:24;16.32;49.10
75964;DHT22;65820;44.726;37.764;2023-02-11T06:40:25;16.32;49.08
75964;DHT22;65820;44.726;37.764;2023-02-11T06:41:33;16.31;49.09
75964;DHT22;65820;44.726;37.764;2023-02-11T06:42:41;16.31;48.96
75964;DHT22;65820;44.726;37.764;2023-02-11T06:43:42;16.32;48.95
75964;DHT22;65820;44.726;37.764;2023-02-11T06:44:44;16.31;48.94
75964;DHT22;65820;44.726;37.764;2023-02-11T06:45:52;16.29;46.98
75964;DHT22;65820;44.726;37.764;2023-02-11T06:46:54;16.27;46.24
75964;DHT22;65820;44.726;37.764;2023-02-11T06:47:55;16.26;47.89
75964;DHT22;65820;44.726;37.764;2023-02-11T06:48:57;16.22;47.73
75964;DHT22;65820;44.726;37.764;2023-02-11T06:49:58;16.21;47.44
75964;DHT22;65820;44.726;37.764;2023-02-11T06:51:07;16.19;46.30
75964;DHT22;65820;44.726;37.764;2023-02-11T06:52:09;16.17;46.28
75964;DHT22;65820;44.726;37.764;2023-02-11T06:53:10;16.14;46.28
75964;DHT22;65820;44.726;37.764;2023-02-11T06:54:12;16.13;45.57
75964;DHT22;65820;44.726;37.764;2023-02-11T06:55:13;16.10;45.97
75964;DHT22;65820;44.726;37.764;2023-02-11T06:56:18;16.08;46.51
75964;DHT22;65820;44.726;37.764;2023-02-11T06:57:20;16.05;46.00
75964;DHT22;65820;44.726;37.764;2023-02-11T06:58:21;16.02;45.57
75964;DHT22;65820;44.726;37.764;2023-02-11T06:59:23;16.01;45.97
75964;DHT22;65820;44.726;37.764;2023-02-11T07:00:24;15.99;46.15
75964;DHT22;65820;44.726;37.764;2023-02-11T07:01:26;15.99;46.02
75964;DHT22;65820;44.726;37.764;2023-02-11T07:02:28;15.98;45.80
75964;DHT22;65820;44.726;37.764;2023-02-11T07:03:29;15.95;46.06
75964;DHT22;65820;44.726;37.764;2023-02-11T07:04:30;15.93;45.65
75964;DHT22;65820;44.726;37.764;2023-02-11T07:05:32;15.91;45.96
75964;DHT22;65820;44.726;37.764;2023-02-11T07:06:34;15.91;45.97
75964;DHT22;65820;44.726;37.764;2023-02-11T07:07:37;15.89;45.57
75964;DHT22;65820;44.726;37.764;2023-02-11T07:08:38;15.89;45.82
75964;DHT22;65820;44.726;37.764;2023-02-11T07:09:42;15.88;45.73
75964;DHT22;65820;44.726;37.764;2023-02-11T07:10:43;15.86;45.85
75964;DHT22;65820;44.726;37.764;2023-02-11T07:11:45;15.85;45.77
75964;DHT22;65820;44.726;37.764;2023-02-11T07:12:46;15.84;45.85
75964;DHT22;65820;44.726;37.764;2023-02-11T07:15:13;15.82;45.94
75964;DHT22;65820;44.726;37.764;2023-02-11T07:16:16;15.81;45.57
75964;DHT22;65820;44.726;37.764;2023-02-11T07:17:17;15.80;46.05
75964;DHT22;65820;44.726;37.764;2023-02-11T07:18:19;15.78;46.17
75964;DHT22;65820;44.726;37.764;2023-02-11T07:19:20;15.80;45.76
75964;DHT22;65820;44.726;37.764;2023-02-11T07:20:21;15.77;45.68
75964;DHT22;65820;44.726;37.764;2023-02-11T07:21:23;15.77;46.07
75964;DHT22;65820;44.726;37.764;2023-02-11T07:22:24;15.76;45.91
75964;DHT22;65820;44.726;37.764;2023-02-11T07:23:25;15.76;45.86
75964;DHT22;65820;44.726;37.764;2023-02-11T07:24:27;15.75;45.91
75964;DHT22;65820;44.726;37.764;2023-02-11T07:25:28;15.75;45.92
75964;DHT22;65820;44.726;37.764;2023-02-11T07:26:30;15.74;45.86
75964;DHT22;65820;44.726;37.764;2023-02-11T07:27:31;15.73;46.15
75964;DHT22;65820;44.726;37.764;2023-02-11T07:28:34;15.73;45.82
75964;DHT22;65820;44.726;37.764;2023-02-11T07:29:36;15.72;46.07
75964;DHT22;65820;44.726;37.764;2023-02-11T07:30:38;15.72;46.09
75964;DHT22;65820;44.726;37.764;2023-02-11T07:31:39;15.72;46.03
75964;DHT22;65820;44.726;37.764;2023-02-11T07:32:40;15.71;45.61
75964;DHT22;65820;44.726;37.764;2023-02-11T07:33:42;15.72;45.90
75964;DHT22;65820;44.726;37.764;2023-02-11T07:34:45;15.70;45.97
75964;DHT22;65820;44.726;37.764;2023-02-11T07:35:48;15.69;45.93
75964;DHT22;65820;44.726;37.764;2023-02-11T07:36:49;15.69;45.41
75964;DHT22;65820;44.726;37.764;2023-02-11T07:37:50;15.68;45.45
75964;DHT22;65820;44.726;37.764;2023-02-11T07:38:52;15.68;45.80
75964;DHT22;65820;44.726;37.764;2023-02-11T07:39:53;15.67;45.62
75964;DHT22;65820;44.726;37.764;2023-02-11T07:40:59;15.67;46.02
75964;DHT22;65820;44.726;37.764;2023-02-11T07:42:00;15.66;45.59
75964;DHT22;65820;44.726;37.764;2023-02-11T07:43:06;15.65;46.00
75964;DHT22;65820;44.726;37.764;2023-02-11T07:44:08;15.65;45.73
75964;DHT22;65820;44.726;37.764;2023-02-11T07:45:10;15.63;45.88
75964;DHT22;65820;44.726;37.764;2023-02-11T07:46:19;15.63;45.98
75964;DHT22;65820;44.726;37.764;2023-02-11T07:47:20;15.62;46.06
75964;DHT22;65820;44.726;37.764;2023-02-11T07:49:11;15.61;45.54
75964;DHT22;65820;44.726;37.764;2023-02-11T07:50:12;15.61;45.96
75964;DHT22;65820;44.726;37.764;2023-02-11T07:51:19;15.59;45.91
75964;DHT22;65820;44.726;37.764;2023-02-11T07:52:21;15.60;46.05
75964;DHT22;65820;44.726;37.764;2023-02-11T07:53:22;15.60;46.25
75964;DHT22;65820;44.726;37.764;2023-02-11T07:54:23;15.58;46.03
75964;DHT22;65820;44.726;37.764;2023-02-11T07:55:25;15.58;46.02
75964;DHT22;65820;44.726;37.764;2023-02-11T07:56:27;15.57;45.98
75964;DHT22;65820;44.726;37.764;2023-02-11T07:57:32;15.58;46.11
75964;DHT22;65820;44.726;37.764;2023-02-11T07:58:34;15.57;46.15
75964;DHT22;65820;44.726;37.764;2023-02-11T07:59:36;15.58;45.82
75964;DHT22;65820;44.726;37.764;2023-02-11T08:00:37;15.57;46.06
75964;DHT22;65820;44.726;37.764;2023-02-11T08:01:39;15.56;46.11
75964;DHT22;65820;44.726;37.764;2023-02-11T08:02:40;15.57;46.12
75964;DHT22;65820;44.726;37.764;2023-02-11T08:03:42;15.55;45.98
75964;DHT22;65820;44.726;37.764;2023-02-11T08:04:45;15.56;45.99
75964;DHT22;65820;44.726;37.764;2023-02-11T08:05:46;15.55;46.06
75964;DHT22;65820;44.726;37.764;2023-02-11T08:06:48;15.56;45.96
75964;DHT22;65820;44.726;37.764;2023-02-11T08:07:51;15.55;46.09
75964;DHT22;65820;44.726;37.764;2023-02-11T08:08:53;15.54;45.61
75964;DHT22;65820;44.726;37.764;2023-02-11T08:09:54;15.56;46.02
75964;DHT22;65820;44.726;37.764;2023-02-11T08:10:56;15.55;45.74
75964;DHT22;65820;44.726;37.764;2023-02-11T08:11:58;15.55;46.11
75964;DHT22;65820;44.726;37.764;2023-02-11T08:13:00;15.55;46.25
75964;DHT22;65820;44.726;37.764;2023-02-11T08:14:01;15.55;46.24
75964;DHT22;65820;44.726;37.764;2023-02-11T08:15:03;15.55;46.36
75964;DHT22;65820;44.726;37.764;2023-02-11T08:16:05;15.57;46.22
75964;DHT22;65820;44.726;37.764;2023-02-11T08:17:07;15.56;45.90
75964;DHT22;65820;44.726;37.764;2023-02-11T08:18:09;15.54;46.31
75964;DHT22;65820;44.726;37.764;2023-02-11T08:19:13;15.54;46.06
75964;DHT22;65820;44.726;37.764;2023-02-11T08:20:15;15.54;46.13
75964;DHT22;65820;44.726;37.764;2023-02-11T08:21:17;15.53;46.18
75964;DHT22;65820;44.726;37.764;2023-02-11T08:22:19;15.55;46.11
75964;DHT22;65820;44.726;37.764;2023-02-11T08:23:24;15.55;46.31
75964;DHT22;65820;44.726;37.764;2023-02-11T08:24:25;15.54;45.96
75964;DHT22;65820;44.726;37.764;2023-02-11T08:25:27;15.53;46.30
75964;DHT22;65820;44.726;37.764;2023-02-11T08:26:29;15.55;46.16
75964;DHT22;65820;44.726;37.764;2023-02-11T08:27:31;15.54;46.19
75964;DHT22;65820;44.726;37.764;2023-02-11T08:28:39;15.53;46.13
75964;DHT22;65820;44.726;37.764;2023-02-11T08:29:41;15.53;46.25
75964;DHT22;65820;44.726;37.764;2023-02-11T08:30:42;15.54;46.19
75964;DHT22;65820;44.726;37.764;2023-02-11T08:31:46;15.53;46.06
75964;DHT22;65820;44.726;37.764;2023-02-11T08:32:47;15.52;45.82
75964;DHT22;65820;44.726;37.764;2023-02-11T08:33:49;15.52;46.12
75964;DHT22;65820;44.726;37.764;2023-02-11T08:34:51;15.52;46.04
75964;DHT22;65820;44.726;37.764;2023-02-11T08:35:52;15.52;46.07
75964;DHT22;65820;44.726;37.764;2023-02-11T08:36:54;15.53;46.15
75964;DHT22;65820;44.726;37.764;2023-02-11T08:37:58;15.52;46.16
75964;DHT22;65820;44.726;37.764;2023-02-11T08:39:01;15.51;45.89
75964;DHT22;65820;44.726;37.764;2023-02-11T08:40:05;15.51;46.05
75964;DHT22;65820;44.726;37.764;2023-02-11T08:41:07;15.51;45.91
75964;DHT22;65820;44.726;37.764;2023-02-11T08:42:08;15.52;45.88
75964;DHT22;65820;44.726;37.764;2023-02-11T08:43:10;15.51;46.04
75964;DHT22;65820;44.726;37.764;2023-02-11T08:44:11;15.52;45.99
75964;DHT22;65820;44.726;37.764;2023-02-11T08:45:13;15.53;46.00
75964;DHT22;65820;44.726;37.764;2023-02-11T08:46:16;15.53;46.53
75964;DHT22;65820;44.726;37.764;2023-02-11T08:47:18;15.56;46.67
75964;DHT22;65820;44.726;37.764;2023-02-11T08:48:19;15.58;46.97
75964;DHT22;65820;44.726;37.764;2023-02-11T08:49:21;15.61;47.44
75964;DHT22;65820;44.726;37.764;2023-02-11T08:50:22;15.67;49.22
75964;DHT22;65820;44.726;37.764;2023-02-11T08:51:26;15.71;49.73
75964;DHT22;65820;44.726;37.764;2023-02-11T08:52:28;15.75;50.69
75964;DHT22;65820;44.726;37.764;2023-02-11T08:53:29;15.78;50.54
75964;DHT22;65820;44.726;37.764;2023-02-11T08:54:31;15.82;51.15